sensor_id;sensor_type;location;lat;lon;timestamp;P1;durP1;ratioP1;P2;durP2;ratioP2
5339;SDS011;2692;48.848;8.924;2023-08-17T00:01:48;4.80;;;2.17;;
5339;SDS011;2692;48.848;8.924;2023-08-17T00:04:13;6.07;;;2.10;;
5339;SDS011;2692;48.848;8.924;2023-08-17T00:06:39;4.33;;;2.47;;
5339;SDS011;2692;48.848;8.924;2023-08-17T00:09:04;5.10;;;2.50;;
5339;SDS011;2692;48.848;8.924;2023-08-17T00:11:30;3.20;;;1.97;;
5339;SDS011;2692;48.848;8.924;2023-08-17T00:13:55;4.10;;;2.10;;
5339;SDS011;2692;48.848;8.924;2023-08-17T00:16:20;4.90;;;3.10;;
5339;SDS011;2692;48.848;8.924;2023-08-17T00:18:47;4.63;;;2.60;;
5339;SDS011;2692;48.848;8.924;2023-08-17T00:21:13;9.50;;;2.10;;
5339;SDS011;2692;48.848;8.924;2023-08-17T00:23:38;4.70;;;2.33;;
5339;SDS011;2692;48.848;8.924;2023-08-17T00:26:03;6.17;;;2.63;;
5339;SDS011;2692;48.848;8.924;2023-08-17T00:28:29;3.70;;;2.43;;
5339;SDS011;2692;48.848;8.924;2023-08-17T00:30:54;4.30;;;2.57;;
5339;SDS011;2692;48.848;8.924;2023-08-17T00:33:19;4.97;;;2.20;;
5339;SDS011;2692;48.848;8.924;2023-08-17T00:35:45;3.27;;;2.30;;
5339;SDS011;2692;48.848;8.924;2023-08-17T00:38:10;4.70;;;2.67;;
5339;SDS011;2692;48.848;8.924;2023-08-17T00:40:36;5.83;;;2.30;;
5339;SDS011;2692;48.848;8.924;2023-08-17T00:43:01;5.30;;;1.90;;
5339;SDS011;2692;48.848;8.924;2023-08-17T00:45:26;3.27;;;1.67;;
5339;SDS011;2692;48.848;8.924;2023-08-17T00:47:54;2.90;;;1.90;;
5339;SDS011;2692;48.848;8.924;2023-08-17T00:50:21;4.70;;;2.30;;
5339;SDS011;2692;48.848;8.924;2023-08-17T00:52:47;3.03;;;1.70;;
5339;SDS011;2692;48.848;8.924;2023-08-17T00:55:12;4.50;;;2.30;;
5339;SDS011;2692;48.848;8.924;2023-08-17T00:57:38;4.80;;;2.17;;
5339;SDS011;2692;48.848;8.924;2023-08-17T01:00:05;4.10;;;2.30;;
5339;SDS011;2692;48.848;8.924;2023-08-17T01:02:31;3.87;;;2.47;;
5339;SDS011;2692;48.848;8.924;2023-08-17T01:04:57;3.10;;;1.47;;
5339;SDS011;2692;48.848;8.924;2023-08-17T01:07:23;2.97;;;1.73;;
5339;SDS011;2692;48.848;8.924;2023-08-17T01:09:48;2.70;;;2.30;;
5339;SDS011;2692;48.848;8.924;2023-08-17T01:14:53;5.03;;;2.40;;
5339;SDS011;2692;48.848;8.924;2023-08-17T01:17:25;4.20;;;2.13;;
5339;SDS011;2692;48.848;8.924;2023-08-17T01:19:52;6.03;;;2.33;;
5339;SDS011;2692;48.848;8.924;2023-08-17T01:22:18;4.00;;;2.60;;
5339;SDS011;2692;48.848;8.924;2023-08-17T01:24:46;4.93;;;2.77;;
5339;SDS011;2692;48.848;8.924;2023-08-17T01:27:11;3.27;;;2.00;;
5339;SDS011;2692;48.848;8.924;2023-08-17T01:29:37;6.47;;;3.10;;
5339;SDS011;2692;48.848;8.924;2023-08-17T01:34:55;3.43;;;2.50;;
5339;SDS011;2692;48.848;8.924;2023-08-17T01:37:25;4.00;;;2.30;;
5339;SDS011;2692;48.848;8.924;2023-08-17T01:39:55;4.63;;;2.93;;
5339;SDS011;2692;48.848;8.924;2023-08-17T01:42:21;4.10;;;2.67;;
5339;SDS011;2692;48.848;8.924;2023-08-17T01:44:47;5.30;;;2.30;;
5339;SDS011;2692;48.848;8.924;2023-08-17T01:47:12;5.37;;;2.90;;
5339;SDS011;2692;48.848;8.924;2023-08-17T01:49:37;2.47;;;1.80;;
5339;SDS011;2692;48.848;8.924;2023-08-17T01:52:03;4.33;;;2.30;;
5339;SDS011;2692;48.848;8.924;2023-08-17T01:54:28;7.70;;;2.70;;
5339;SDS011;2692;48.848;8.924;2023-08-17T01:56:53;3.77;;;2.40;;
5339;SDS011;2692;48.848;8.924;2023-08-17T01:59:19;4.33;;;2.30;;
5339;SDS011;2692;48.848;8.924;2023-08-17T02:01:44;3.93;;;2.20;;
5339;SDS011;2692;48.848;8.924;2023-08-17T02:04:09;3.30;;;2.00;;
5339;SDS011;2692;48.848;8.924;2023-08-17T02:06:35;4.50;;;2.30;;
5339;SDS011;2692;48.848;8.924;2023-08-17T02:09:00;4.87;;;2.63;;
5339;SDS011;2692;48.848;8.924;2023-08-17T02:11:25;5.50;;;2.17;;
5339;SDS011;2692;48.848;8.924;2023-08-17T02:13:52;2.87;;;1.97;;
5339;SDS011;2692;48.848;8.924;2023-08-17T02:16:17;3.47;;;2.40;;
5339;SDS011;2692;48.848;8.924;2023-08-17T02:18:42;4.00;;;2.30;;
5339;SDS011;2692;48.848;8.924;2023-08-17T02:21:07;2.20;;;1.73;;
5339;SDS011;2692;48.848;8.924;2023-08-17T02:23:34;4.70;;;1.90;;
5339;SDS011;2692;48.848;8.924;2023-08-17T02:25:59;3.03;;;2.20;;
5339;SDS011;2692;48.848;8.924;2023-08-17T02:28:24;4.20;;;2.20;;
5339;SDS011;2692;48.848;8.924;2023-08-17T02:30:54;3.80;;;2.53;;
5339;SDS011;2692;48.848;8.924;2023-08-17T02:33:20;6.50;;;2.73;;
5339;SDS011;2692;48.848;8.924;2023-08-17T02:35:48;5.17;;;2.50;;
5339;SDS011;2692;48.848;8.924;2023-08-17T02:38:14;4.13;;;2.10;;
5339;SDS011;2692;48.848;8.924;2023-08-17T02:40:39;4.10;;;2.53;;
5339;SDS011;2692;48.848;8.924;2023-08-17T02:43:04;2.63;;;1.73;;
5339;SDS011;2692;48.848;8.924;2023-08-17T02:45:30;3.90;;;2.33;;
5339;SDS011;2692;48.848;8.924;2023-08-17T02:47:55;6.23;;;2.40;;
5339;SDS011;2692;48.848;8.924;2023-08-17T02:50:20;7.43;;;3.27;;
5339;SDS011;2692;48.848;8.924;2023-08-17T02:52:45;3.80;;;2.77;;
5339;SDS011;2692;48.848;8.924;2023-08-17T02:55:11;3.57;;;2.57;;
5339;SDS011;2692;48.848;8.924;2023-08-17T02:57:36;4.73;;;3.07;;
5339;SDS011;2692;48.848;8.924;2023-08-17T03:00:01;5.20;;;2.83;;
5339;SDS011;2692;48.848;8.924;2023-08-17T03:02:27;7.63;;;3.43;;
5339;SDS011;2692;48.848;8.924;2023-08-17T03:04:52;6.33;;;3.30;;
5339;SDS011;2692;48.848;8.924;2023-08-17T03:07:17;6.97;;;4.20;;
5339;SDS011;2692;48.848;8.924;2023-08-17T03:09:43;6.73;;;3.07;;
5339;SDS011;2692;48.848;8.924;2023-08-17T03:12:08;6.93;;;3.63;;
5339;SDS011;2692;48.848;8.924;2023-08-17T03:14:33;8.00;;;4.50;;
5339;SDS011;2692;48.848;8.924;2023-08-17T03:16:58;6.40;;;4.30;;
5339;SDS011;2692;48.848;8.924;2023-08-17T03:19:24;8.90;;;4.87;;
5339;SDS011;2692;48.848;8.924;2023-08-17T03:21:49;8.60;;;5.27;;
5339;SDS011;2692;48.848;8.924;2023-08-17T03:24:14;8.43;;;4.90;;
5339;SDS011;2692;48.848;8.924;2023-08-17T03:26:39;6.60;;;4.20;;
5339;SDS011;2692;48.848;8.924;2023-08-17T03:29:05;7.20;;;4.53;;
5339;SDS011;2692;48.848;8.924;2023-08-17T03:31:30;8.07;;;5.27;;
5339;SDS011;2692;48.848;8.924;2023-08-17T03:33:55;7.17;;;4.67;;
5339;SDS011;2692;48.848;8.924;2023-08-17T03:36:21;9.47;;;5.80;;
5339;SDS011;2692;48.848;8.924;2023-08-17T03:38:46;18.43;;;5.47;;
5339;SDS011;2692;48.848;8.924;2023-08-17T03:41:12;12.67;;;5.47;;
5339;SDS011;2692;48.848;8.924;2023-08-17T03:43:37;10.10;;;5.90;;
5339;SDS011;2692;48.848;8.924;2023-08-17T03:46:03;6.40;;;4.80;;
5339;SDS011;2692;48.848;8.924;2023-08-17T03:48:29;13.03;;;5.40;;
5339;SDS011;2692;48.848;8.924;2023-08-17T03:50:54;11.90;;;5.90;;
5339;SDS011;2692;48.848;8.924;2023-08-17T03:53:20;6.30;;;5.20;;
5339;SDS011;2692;48.848;8.924;2023-08-17T03:55:48;8.33;;;5.00;;
5339;SDS011;2692;48.848;8.924;2023-08-17T03:58:14;17.23;;;6.40;;
5339;SDS011;2692;48.848;8.924;2023-08-17T04:00:39;7.20;;;4.90;;
5339;SDS011;2692;48.848;8.924;2023-08-17T04:03:05;15.13;;;6.50;;
5339;SDS011;2692;48.848;8.924;2023-08-17T04:05:31;9.13;;;4.50;;
5339;SDS011;2692;48.848;8.924;2023-08-17T04:07:56;6.80;;;4.70;;
5339;SDS011;2692;48.848;8.924;2023-08-17T04:10:26;6.07;;;4.40;;
5339;SDS011;2692;48.848;8.924;2023-08-17T04:12:51;6.27;;;4.30;;
5339;SDS011;2692;48.848;8.924;2023-08-17T04:15:17;7.43;;;4.27;;
5339;SDS011;2692;48.848;8.924;2023-08-17T04:17:42;5.70;;;3.60;;
5339;SDS011;2692;48.848;8.924;2023-08-17T04:20:08;6.37;;;4.47;;
5339;SDS011;2692;48.848;8.924;2023-08-17T04:22:33;6.57;;;4.03;;
5339;SDS011;2692;48.848;8.924;2023-08-17T04:24:59;8.17;;;3.30;;
5339;SDS011;2692;48.848;8.924;2023-08-17T04:27:24;6.70;;;3.63;;
5339;SDS011;2692;48.848;8.924;2023-08-17T04:29:49;4.47;;;3.43;;
5339;SDS011;2692;48.848;8.924;2023-08-17T04:32:15;9.43;;;3.27;;
5339;SDS011;2692;48.848;8.924;2023-08-17T04:34:41;7.27;;;4.00;;
5339;SDS011;2692;48.848;8.924;2023-08-17T04:37:07;13.00;;;5.20;;
5339;SDS011;2692;48.848;8.924;2023-08-17T04:39:32;7.80;;;4.00;;
5339;SDS011;2692;48.848;8.924;2023-08-17T04:41:58;14.53;;;4.90;;
5339;SDS011;2692;48.848;8.924;2023-08-17T04:44:23;9.37;;;5.50;;
5339;SDS011;2692;48.848;8.924;2023-08-17T04:46:48;10.67;;;4.57;;
5339;SDS011;2692;48.848;8.924;2023-08-17T04:49:13;9.93;;;4.20;;
5339;SDS011;2692;48.848;8.924;2023-08-17T04:51:39;9.77;;;4.77;;
5339;SDS011;2692;48.848;8.924;2023-08-17T04:54:04;7.70;;;5.03;;
5339;SDS011;2692;48.848;8.924;2023-08-17T04:56:29;5.93;;;4.27;;
5339;SDS011;2692;48.848;8.924;2023-08-17T04:58:55;11.43;;;4.53;;
5339;SDS011;2692;48.848;8.924;2023-08-17T05:01:20;7.50;;;4.40;;
5339;SDS011;2692;48.848;8.924;2023-08-17T05:03:45;5.43;;;4.07;;
5339;SDS011;2692;48.848;8.924;2023-08-17T05:06:11;7.40;;;3.83;;
5339;SDS011;2692;48.848;8.924;2023-08-17T05:08:36;11.30;;;4.50;;
5339;SDS011;2692;48.848;8.924;2023-08-17T05:11:02;7.60;;;3.80;;
5339;SDS011;2692;48.848;8.924;2023-08-17T05:13:27;4.67;;;3.33;;
5339;SDS011;2692;48.848;8.924;2023-08-17T05:15:52;6.97;;;4.37;;
5339;SDS011;2692;48.848;8.924;2023-08-17T05:18:17;9.13;;;4.30;;
5339;SDS011;2692;48.848;8.924;2023-08-17T05:20:43;5.83;;;3.93;;
5339;SDS011;2692;48.848;8.924;2023-08-17T05:23:08;8.87;;;4.37;;
5339;SDS011;2692;48.848;8.924;2023-08-17T05:25:33;4.93;;;3.50;;
5339;SDS011;2692;48.848;8.924;2023-08-17T05:27:59;7.90;;;4.80;;
5339;SDS011;2692;48.848;8.924;2023-08-17T05:30:24;5.83;;;3.67;;
5339;SDS011;2692;48.848;8.924;2023-08-17T05:32:49;3.33;;;2.60;;
5339;SDS011;2692;48.848;8.924;2023-08-17T05:35:14;6.90;;;3.97;;
5339;SDS011;2692;48.848;8.924;2023-08-17T05:37:40;6.53;;;3.60;;
5339;SDS011;2692;48.848;8.924;2023-08-17T05:40:05;5.60;;;3.80;;
5339;SDS011;2692;48.848;8.924;2023-08-17T05:42:31;8.43;;;5.00;;
5339;SDS011;2692;48.848;8.924;2023-08-17T05:44:56;7.40;;;4.10;;
5339;SDS011;2692;48.848;8.924;2023-08-17T05:47:21;7.43;;;4.50;;
5339;SDS011;2692;48.848;8.924;2023-08-17T05:49:47;11.30;;;4.57;;
5339;SDS011;2692;48.848;8.924;2023-08-17T05:52:12;7.47;;;3.70;;
5339;SDS011;2692;48.848;8.924;2023-08-17T05:54:38;5.67;;;4.30;;
5339;SDS011;2692;48.848;8.924;2023-08-17T05:57:03;7.93;;;4.20;;
5339;SDS011;2692;48.848;8.924;2023-08-17T05:59:28;7.37;;;4.47;;
5339;SDS011;2692;48.848;8.924;2023-08-17T06:01:54;14.43;;;6.97;;
5339;SDS011;2692;48.848;8.924;2023-08-17T06:04:19;8.93;;;5.00;;
5339;SDS011;2692;48.848;8.924;2023-08-17T06:06:45;10.50;;;5.43;;
5339;SDS011;2692;48.848;8.924;2023-08-17T06:09:11;6.03;;;4.67;;
5339;SDS011;2692;48.848;8.924;2023-08-17T06:11:36;9.43;;;4.77;;
5339;SDS011;2692;48.848;8.924;2023-08-17T06:14:01;8.80;;;5.60;;
5339;SDS011;2692;48.848;8.924;2023-08-17T06:16:26;7.23;;;5.10;;
5339;SDS011;2692;48.848;8.924;2023-08-17T06:18:52;12.63;;;6.70;;
5339;SDS011;2692;48.848;8.924;2023-08-17T06:21:17;10.80;;;5.60;;
5339;SDS011;2692;48.848;8.924;2023-08-17T06:23:42;11.37;;;5.67;;
5339;SDS011;2692;48.848;8.924;2023-08-17T06:26:08;7.00;;;5.27;;
5339;SDS011;2692;48.848;8.924;2023-08-17T06:28:33;11.67;;;5.40;;
5339;SDS011;2692;48.848;8.924;2023-08-17T06:30:58;12.40;;;5.37;;
5339;SDS011;2692;48.848;8.924;2023-08-17T06:33:24;7.73;;;5.00;;
5339;SDS011;2692;48.848;8.924;2023-08-17T06:35:49;12.67;;;5.97;;
5339;SDS011;2692;48.848;8.924;2023-08-17T06:38:14;8.23;;;4.80;;
5339;SDS011;2692;48.848;8.924;2023-08-17T06:40:40;11.17;;;5.43;;
5339;SDS011;2692;48.848;8.924;2023-08-17T06:43:05;9.00;;;6.13;;
5339;SDS011;2692;48.848;8.924;2023-08-17T06:45:31;9.07;;;5.47;;
5339;SDS011;2692;48.848;8.924;2023-08-17T06:47:57;9.60;;;6.37;;
5339;SDS011;2692;48.848;8.924;2023-08-17T06:50:22;12.33;;;6.67;;
5339;SDS011;2692;48.848;8.924;2023-08-17T06:52:47;7.60;;;5.13;;
5339;SDS011;2692;48.848;8.924;2023-08-17T06:55:12;10.67;;;6.63;;
5339;SDS011;2692;48.848;8.924;2023-08-17T06:57:38;9.83;;;6.33;;
5339;SDS011;2692;48.848;8.924;2023-08-17T07:00:03;13.73;;;5.90;;
5339;SDS011;2692;48.848;8.924;2023-08-17T07:02:32;9.97;;;5.80;;
5339;SDS011;2692;48.848;8.924;2023-08-17T07:04:59;19.20;;;6.37;;
5339;SDS011;2692;48.848;8.924;2023-08-17T07:07:24;8.00;;;4.70;;
5339;SDS011;2692;48.848;8.924;2023-08-17T07:09:49;13.10;;;5.17;;
5339;SDS011;2692;48.848;8.924;2023-08-17T07:12:14;5.70;;;4.33;;
5339;SDS011;2692;48.848;8.924;2023-08-17T07:14:41;7.30;;;4.13;;
5339;SDS011;2692;48.848;8.924;2023-08-17T07:17:06;9.97;;;5.07;;
5339;SDS011;2692;48.848;8.924;2023-08-17T07:19:31;11.97;;;5.10;;
5339;SDS011;2692;48.848;8.924;2023-08-17T07:21:57;9.90;;;4.40;;
5339;SDS011;2692;48.848;8.924;2023-08-17T07:24:22;5.40;;;4.00;;
5339;SDS011;2692;48.848;8.924;2023-08-17T07:26:47;6.70;;;4.20;;
5339;SDS011;2692;48.848;8.924;2023-08-17T07:29:12;9.43;;;4.63;;
5339;SDS011;2692;48.848;8.924;2023-08-17T07:31:38;9.33;;;4.63;;
5339;SDS011;2692;48.848;8.924;2023-08-17T07:34:04;17.87;;;5.33;;
5339;SDS011;2692;48.848;8.924;2023-08-17T07:36:30;8.10;;;4.53;;
5339;SDS011;2692;48.848;8.924;2023-08-17T07:38:56;7.27;;;4.50;;
5339;SDS011;2692;48.848;8.924;2023-08-17T07:41:21;8.40;;;4.70;;
5339;SDS011;2692;48.848;8.924;2023-08-17T07:43:46;12.10;;;5.40;;
5339;SDS011;2692;48.848;8.924;2023-08-17T07:46:12;9.20;;;5.27;;
5339;SDS011;2692;48.848;8.924;2023-08-17T07:48:37;8.53;;;5.10;;
5339;SDS011;2692;48.848;8.924;2023-08-17T07:51:02;6.67;;;4.60;;
5339;SDS011;2692;48.848;8.924;2023-08-17T07:53:27;7.70;;;5.10;;
5339;SDS011;2692;48.848;8.924;2023-08-17T07:55:53;8.00;;;4.83;;
5339;SDS011;2692;48.848;8.924;2023-08-17T07:58:18;11.43;;;5.87;;
5339;SDS011;2692;48.848;8.924;2023-08-17T08:00:44;8.57;;;5.80;;
5339;SDS011;2692;48.848;8.924;2023-08-17T08:03:09;14.80;;;5.67;;
5339;SDS011;2692;48.848;8.924;2023-08-17T08:05:34;11.17;;;6.60;;
5339;SDS011;2692;48.848;8.924;2023-08-17T08:08:00;9.20;;;5.30;;
5339;SDS011;2692;48.848;8.924;2023-08-17T08:10:25;11.00;;;5.40;;
5339;SDS011;2692;48.848;8.924;2023-08-17T08:12:52;7.20;;;5.30;;
5339;SDS011;2692;48.848;8.924;2023-08-17T08:15:17;10.97;;;6.00;;
5339;SDS011;2692;48.848;8.924;2023-08-17T08:17:42;7.23;;;4.83;;
5339;SDS011;2692;48.848;8.924;2023-08-17T08:20:08;12.57;;;5.90;;
5339;SDS011;2692;48.848;8.924;2023-08-17T08:22:33;13.77;;;5.80;;
5339;SDS011;2692;48.848;8.924;2023-08-17T08:24:58;8.57;;;5.20;;
5339;SDS011;2692;48.848;8.924;2023-08-17T08:27:23;9.30;;;5.17;;
5339;SDS011;2692;48.848;8.924;2023-08-17T08:29:49;9.50;;;5.60;;
5339;SDS011;2692;48.848;8.924;2023-08-17T08:32:15;9.60;;;4.67;;
5339;SDS011;2692;48.848;8.924;2023-08-17T08:34:40;10.70;;;3.40;;
5339;SDS011;2692;48.848;8.924;2023-08-17T08:37:06;7.80;;;4.33;;
5339;SDS011;2692;48.848;8.924;2023-08-17T08:39:31;7.10;;;4.07;;
5339;SDS011;2692;48.848;8.924;2023-08-17T08:41:56;15.87;;;6.37;;
5339;SDS011;2692;48.848;8.924;2023-08-17T08:44:21;9.20;;;4.30;;
5339;SDS011;2692;48.848;8.924;2023-08-17T08:46:48;6.20;;;3.90;;
5339;SDS011;2692;48.848;8.924;2023-08-17T08:49:13;9.20;;;4.80;;
5339;SDS011;2692;48.848;8.924;2023-08-17T08:51:44;6.90;;;4.07;;
5339;SDS011;2692;48.848;8.924;2023-08-17T08:54:14;8.27;;;3.97;;
5339;SDS011;2692;48.848;8.924;2023-08-17T08:56:44;8.07;;;3.90;;
5339;SDS011;2692;48.848;8.924;2023-08-17T08:59:10;8.50;;;4.03;;
5339;SDS011;2692;48.848;8.924;2023-08-17T09:01:35;8.40;;;4.37;;
5339;SDS011;2692;48.848;8.924;2023-08-17T09:04:01;6.57;;;3.30;;
5339;SDS011;2692;48.848;8.924;2023-08-17T09:06:27;7.80;;;3.47;;
5339;SDS011;2692;48.848;8.924;2023-08-17T09:08:54;5.87;;;3.57;;
5339;SDS011;2692;48.848;8.924;2023-08-17T09:11:20;11.13;;;3.87;;
5339;SDS011;2692;48.848;8.924;2023-08-17T09:13:45;5.67;;;3.53;;
5339;SDS011;2692;48.848;8.924;2023-08-17T09:16:10;4.50;;;3.20;;
5339;SDS011;2692;48.848;8.924;2023-08-17T09:18:35;5.23;;;3.00;;
5339;SDS011;2692;48.848;8.924;2023-08-17T09:21:01;5.23;;;3.63;;
5339;SDS011;2692;48.848;8.924;2023-08-17T09:23:26;7.90;;;3.13;;
5339;SDS011;2692;48.848;8.924;2023-08-17T09:25:52;6.27;;;3.80;;
5339;SDS011;2692;48.848;8.924;2023-08-17T09:28:22;5.83;;;3.43;;
5339;SDS011;2692;48.848;8.924;2023-08-17T09:33:20;9.20;;;3.80;;
5339;SDS011;2692;48.848;8.924;2023-08-17T09:35:47;5.20;;;3.07;;
5339;SDS011;2692;48.848;8.924;2023-08-17T09:38:12;8.57;;;4.17;;
5339;SDS011;2692;48.848;8.924;2023-08-17T09:40:37;3.83;;;2.83;;
5339;SDS011;2692;48.848;8.924;2023-08-17T09:43:03;5.97;;;3.47;;
5339;SDS011;2692;48.848;8.924;2023-08-17T09:45:29;6.30;;;3.37;;
5339;SDS011;2692;48.848;8.924;2023-08-17T09:47:57;5.53;;;3.30;;
5339;SDS011;2692;48.848;8.924;2023-08-17T09:50:23;5.00;;;3.00;;
5339;SDS011;2692;48.848;8.924;2023-08-17T09:52:52;8.00;;;3.43;;
5339;SDS011;2692;48.848;8.924;2023-08-17T09:55:18;5.87;;;3.50;;
5339;SDS011;2692;48.848;8.924;2023-08-17T09:57:43;4.83;;;2.87;;
5339;SDS011;2692;48.848;8.924;2023-08-17T10:00:09;6.67;;;3.10;;
5339;SDS011;2692;48.848;8.924;2023-08-17T10:02:36;9.50;;;2.77;;
5339;SDS011;2692;48.848;8.924;2023-08-17T10:05:01;8.80;;;3.30;;
5339;SDS011;2692;48.848;8.924;2023-08-17T10:07:30;14.03;;;2.83;;
5339;SDS011;2692;48.848;8.924;2023-08-17T10:09:56;5.30;;;2.60;;
5339;SDS011;2692;48.848;8.924;2023-08-17T10:12:27;5.40;;;2.93;;
5339;SDS011;2692;48.848;8.924;2023-08-17T10:14:55;6.37;;;2.90;;
5339;SDS011;2692;48.848;8.924;2023-08-17T10:17:25;6.73;;;3.20;;
5339;SDS011;2692;48.848;8.924;2023-08-17T10:19:56;5.70;;;3.37;;
5339;SDS011;2692;48.848;8.924;2023-08-17T10:25:21;6.70;;;2.93;;
5339;SDS011;2692;48.848;8.924;2023-08-17T10:27:46;5.57;;;2.50;;
5339;SDS011;2692;48.848;8.924;2023-08-17T10:30:12;5.70;;;3.10;;
5339;SDS011;2692;48.848;8.924;2023-08-17T10:32:38;4.43;;;2.70;;
5339;SDS011;2692;48.848;8.924;2023-08-17T10:35:06;6.30;;;2.90;;
5339;SDS011;2692;48.848;8.924;2023-08-17T10:37:31;5.43;;;3.03;;
5339;SDS011;2692;48.848;8.924;2023-08-17T10:39:57;5.17;;;2.80;;
5339;SDS011;2692;48.848;8.924;2023-08-17T10:42:29;8.30;;;3.73;;
5339;SDS011;2692;48.848;8.924;2023-08-17T10:44:59;4.43;;;2.80;;
5339;SDS011;2692;48.848;8.924;2023-08-17T10:52:28;6.00;;;3.10;;
5339;SDS011;2692;48.848;8.924;2023-08-17T10:54:54;8.13;;;3.37;;
5339;SDS011;2692;48.848;8.924;2023-08-17T11:08:12;7.23;;;3.20;;
5339;SDS011;2692;48.848;8.924;2023-08-17T11:13:34;5.03;;;3.13;;
5339;SDS011;2692;48.848;8.924;2023-08-17T11:16:03;7.80;;;3.63;;
5339;SDS011;2692;48.848;8.924;2023-08-17T11:18:29;4.63;;;2.60;;
5339;SDS011;2692;48.848;8.924;2023-08-17T11:20:56;6.20;;;3.50;;
5339;SDS011;2692;48.848;8.924;2023-08-17T11:23:22;5.30;;;3.50;;
5339;SDS011;2692;48.848;8.924;2023-08-17T11:25:48;7.00;;;3.40;;
5339;SDS011;2692;48.848;8.924;2023-08-17T11:28:15;8.83;;;3.30;;
5339;SDS011;2692;48.848;8.924;2023-08-17T11:30:41;7.57;;;3.60;;
5339;SDS011;2692;48.848;8.924;2023-08-17T11:33:07;6.10;;;3.03;;
5339;SDS011;2692;48.848;8.924;2023-08-17T11:35:33;6.67;;;3.70;;
5339;SDS011;2692;48.848;8.924;2023-08-17T11:37:58;5.53;;;2.70;;
5339;SDS011;2692;48.848;8.924;2023-08-17T11:40:24;4.73;;;2.83;;
5339;SDS011;2692;48.848;8.924;2023-08-17T11:42:50;8.17;;;3.47;;
5339;SDS011;2692;48.848;8.924;2023-08-17T11:45:17;10.43;;;4.00;;
5339;SDS011;2692;48.848;8.924;2023-08-17T11:47:43;7.63;;;3.97;;
5339;SDS011;2692;48.848;8.924;2023-08-17T11:50:12;6.13;;;3.53;;
5339;SDS011;2692;48.848;8.924;2023-08-17T11:52:37;6.47;;;3.30;;
5339;SDS011;2692;48.848;8.924;2023-08-17T11:55:06;7.90;;;3.67;;
5339;SDS011;2692;48.848;8.924;2023-08-17T11:57:34;7.57;;;3.30;;
5339;SDS011;2692;48.848;8.924;2023-08-17T12:00:00;4.87;;;2.90;;
5339;SDS011;2692;48.848;8.924;2023-08-17T12:02:26;5.90;;;3.50;;
5339;SDS011;2692;48.848;8.924;2023-08-17T12:04:52;6.17;;;3.43;;
5339;SDS011;2692;48.848;8.924;2023-08-17T12:07:18;7.17;;;3.40;;
5339;SDS011;2692;48.848;8.924;2023-08-17T12:09:45;5.90;;;3.23;;
5339;SDS011;2692;48.848;8.924;2023-08-17T12:12:10;4.73;;;2.77;;
5339;SDS011;2692;48.848;8.924;2023-08-17T12:14:36;6.80;;;4.30;;
5339;SDS011;2692;48.848;8.924;2023-08-17T12:17:02;6.80;;;4.03;;
5339;SDS011;2692;48.848;8.924;2023-08-17T12:19:27;13.83;;;4.20;;
5339;SDS011;2692;48.848;8.924;2023-08-17T12:21:54;7.33;;;3.90;;
5339;SDS011;2692;48.848;8.924;2023-08-17T12:24:19;5.80;;;3.30;;
5339;SDS011;2692;48.848;8.924;2023-08-17T12:26:45;7.30;;;3.20;;
5339;SDS011;2692;48.848;8.924;2023-08-17T12:29:11;6.13;;;3.00;;
5339;SDS011;2692;48.848;8.924;2023-08-17T12:31:36;14.07;;;3.40;;
5339;SDS011;2692;48.848;8.924;2023-08-17T12:34:02;6.57;;;3.30;;
5339;SDS011;2692;48.848;8.924;2023-08-17T12:36:28;6.43;;;3.70;;
5339;SDS011;2692;48.848;8.924;2023-08-17T12:38:54;6.20;;;2.60;;
5339;SDS011;2692;48.848;8.924;2023-08-17T12:41:19;5.20;;;3.20;;
5339;SDS011;2692;48.848;8.924;2023-08-17T12:43:44;5.57;;;3.10;;
5339;SDS011;2692;48.848;8.924;2023-08-17T12:46:10;7.03;;;3.07;;
5339;SDS011;2692;48.848;8.924;2023-08-17T12:48:38;5.63;;;3.67;;
5339;SDS011;2692;48.848;8.924;2023-08-17T12:51:03;8.03;;;3.87;;
5339;SDS011;2692;48.848;8.924;2023-08-17T12:53:29;8.00;;;4.20;;
5339;SDS011;2692;48.848;8.924;2023-08-17T12:55:54;8.10;;;4.73;;
5339;SDS011;2692;48.848;8.924;2023-08-17T12:58:19;6.90;;;3.57;;
5339;SDS011;2692;48.848;8.924;2023-08-17T13:00:45;7.23;;;4.27;;
5339;SDS011;2692;48.848;8.924;2023-08-17T13:03:10;9.57;;;4.30;;
5339;SDS011;2692;48.848;8.924;2023-08-17T13:05:35;7.50;;;4.03;;
5339;SDS011;2692;48.848;8.924;2023-08-17T13:08:01;5.33;;;3.53;;
5339;SDS011;2692;48.848;8.924;2023-08-17T13:10:26;7.83;;;4.00;;
5339;SDS011;2692;48.848;8.924;2023-08-17T13:12:52;10.37;;;4.53;;
5339;SDS011;2692;48.848;8.924;2023-08-17T13:15:24;4.73;;;3.60;;
5339;SDS011;2692;48.848;8.924;2023-08-17T13:17:49;8.03;;;4.43;;
5339;SDS011;2692;48.848;8.924;2023-08-17T13:20:14;7.90;;;4.00;;
5339;SDS011;2692;48.848;8.924;2023-08-17T13:22:39;6.73;;;4.33;;
5339;SDS011;2692;48.848;8.924;2023-08-17T13:25:05;7.20;;;4.30;;
5339;SDS011;2692;48.848;8.924;2023-08-17T13:27:30;6.80;;;3.67;;
5339;SDS011;2692;48.848;8.924;2023-08-17T13:29:56;9.00;;;5.10;;
5339;SDS011;2692;48.848;8.924;2023-08-17T13:32:23;10.20;;;4.13;;
5339;SDS011;2692;48.848;8.924;2023-08-17T13:34:48;9.17;;;4.77;;
5339;SDS011;2692;48.848;8.924;2023-08-17T13:37:14;6.13;;;4.30;;
5339;SDS011;2692;48.848;8.924;2023-08-17T13:39:39;8.83;;;5.10;;
5339;SDS011;2692;48.848;8.924;2023-08-17T13:42:04;5.70;;;4.03;;
5339;SDS011;2692;48.848;8.924;2023-08-17T13:44:30;6.33;;;4.40;;
5339;SDS011;2692;48.848;8.924;2023-08-17T13:46:55;7.20;;;4.60;;
5339;SDS011;2692;48.848;8.924;2023-08-17T13:49:20;9.83;;;5.13;;
5339;SDS011;2692;48.848;8.924;2023-08-17T13:51:46;9.03;;;4.43;;
5339;SDS011;2692;48.848;8.924;2023-08-17T13:54:11;9.47;;;5.80;;
5339;SDS011;2692;48.848;8.924;2023-08-17T13:56:36;12.60;;;6.17;;
5339;SDS011;2692;48.848;8.924;2023-08-17T13:59:02;8.10;;;5.00;;
5339;SDS011;2692;48.848;8.924;2023-08-17T14:01:27;12.30;;;7.03;;
5339;SDS011;2692;48.848;8.924;2023-08-17T14:03:52;10.00;;;5.23;;
5339;SDS011;2692;48.848;8.924;2023-08-17T14:06:18;10.63;;;6.50;;
5339;SDS011;2692;48.848;8.924;2023-08-17T14:08:43;10.00;;;6.20;;
5339;SDS011;2692;48.848;8.924;2023-08-17T14:11:09;12.53;;;6.50;;
5339;SDS011;2692;48.848;8.924;2023-08-17T14:13:34;10.23;;;5.97;;
5339;SDS011;2692;48.848;8.924;2023-08-17T14:16:01;11.33;;;6.57;;
5339;SDS011;2692;48.848;8.924;2023-08-17T14:18:26;13.13;;;7.30;;
5339;SDS011;2692;48.848;8.924;2023-08-17T14:20:52;11.60;;;5.90;;
5339;SDS011;2692;48.848;8.924;2023-08-17T14:23:17;12.60;;;7.13;;
5339;SDS011;2692;48.848;8.924;2023-08-17T14:25:42;11.47;;;6.90;;
5339;SDS011;2692;48.848;8.924;2023-08-17T14:28:08;10.20;;;6.70;;
5339;SDS011;2692;48.848;8.924;2023-08-17T14:30:33;12.07;;;6.73;;
5339;SDS011;2692;48.848;8.924;2023-08-17T14:32:58;11.40;;;7.37;;
5339;SDS011;2692;48.848;8.924;2023-08-17T14:35:24;14.97;;;7.50;;
5339;SDS011;2692;48.848;8.924;2023-08-17T14:37:49;10.30;;;6.30;;
5339;SDS011;2692;48.848;8.924;2023-08-17T14:40:14;15.80;;;7.43;;
5339;SDS011;2692;48.848;8.924;2023-08-17T14:42:39;10.80;;;5.50;;
5339;SDS011;2692;48.848;8.924;2023-08-17T14:45:05;11.60;;;5.93;;
5339;SDS011;2692;48.848;8.924;2023-08-17T14:47:30;12.77;;;4.60;;
5339;SDS011;2692;48.848;8.924;2023-08-17T14:49:56;8.30;;;4.30;;
5339;SDS011;2692;48.848;8.924;2023-08-17T14:52:21;8.70;;;4.77;;
5339;SDS011;2692;48.848;8.924;2023-08-17T14:54:46;7.10;;;3.90;;
5339;SDS011;2692;48.848;8.924;2023-08-17T14:57:11;6.87;;;4.07;;
5339;SDS011;2692;48.848;8.924;2023-08-17T14:59:37;6.07;;;4.03;;
5339;SDS011;2692;48.848;8.924;2023-08-17T15:02:02;7.50;;;4.60;;
5339;SDS011;2692;48.848;8.924;2023-08-17T15:04:27;6.07;;;3.23;;
5339;SDS011;2692;48.848;8.924;2023-08-17T15:06:53;6.83;;;3.57;;
5339;SDS011;2692;48.848;8.924;2023-08-17T15:09:18;6.80;;;3.47;;
5339;SDS011;2692;48.848;8.924;2023-08-17T15:11:43;7.60;;;3.80;;
5339;SDS011;2692;48.848;8.924;2023-08-17T15:14:09;5.87;;;3.23;;
5339;SDS011;2692;48.848;8.924;2023-08-17T15:16:34;5.67;;;3.03;;
5339;SDS011;2692;48.848;8.924;2023-08-17T15:18:59;5.93;;;3.20;;
5339;SDS011;2692;48.848;8.924;2023-08-17T15:21:25;13.73;;;3.83;;
5339;SDS011;2692;48.848;8.924;2023-08-17T15:23:50;8.67;;;4.70;;
5339;SDS011;2692;48.848;8.924;2023-08-17T15:26:15;9.50;;;3.50;;
5339;SDS011;2692;48.848;8.924;2023-08-17T15:28:41;5.90;;;3.30;;
5339;SDS011;2692;48.848;8.924;2023-08-17T15:31:06;6.07;;;3.03;;
5339;SDS011;2692;48.848;8.924;2023-08-17T15:33:37;6.50;;;2.80;;